< < Back
Terminal Aerodrome Forecast


Current Version              Previous Versions:   1  2  3  4  5  6  7  8  9  

Terminal Aerodrome Forecast

852
FTUS42 KJAX 241700 RRA
TAFGNV
TAF
KGNV 241741Z 2418/2518 20006KT P6SM VCSH BKN050
     FM250300 22005KT P6SM SCT060 SCT250
     FM250600 VRB03KT 4SM BR SCT250
     FM250900 00000KT 2SM BR SCT002 BKN250
     FM251100 00000KT 1/2SM FG OVC002
     FM251330 24004KT 3SM BR BKN004
     FM251400 24008KT P6SM BKN015 BKN250=

Latest METAR

464
SAUS70 KWBC 242300 RRH
MTRGNV
METAR KGNV 242253Z AUTO 27006KT 10SM SCT060 BKN085 28/16 A2993 RMK AO2
SLP133 T02830161


USA.gov is the U.S. government's official web portal to all federal, state and local government web resources and services.